sensor_id;sensor_type;location;lat;lon;timestamp;pressure;altitude;pressure_sealevel;temperature;humidity
65175;BME280;51761;42.126;24.752;2023-03-22T00:01:10;99258.44;;;11.19;91.35
65175;BME280;51761;42.126;24.752;2023-03-22T00:03:37;99255.81;;;11.12;92.08
65175;BME280;51761;42.126;24.752;2023-03-22T00:06:02;99258.44;;;11.19;91.97
65175;BME280;51761;42.126;24.752;2023-03-22T00:08:28;99232.47;;;11.03;91.73
65175;BME280;51761;42.126;24.752;2023-03-22T00:10:53;99259.13;;;11.23;91.50
65175;BME280;51761;42.126;24.752;2023-03-22T00:13:19;99256.50;;;11.16;91.89
65175;BME280;51761;42.126;24.752;2023-03-22T00:15:45;99249.53;;;11.08;92.20
65175;BME280;51761;42.126;24.752;2023-03-22T00:18:14;99248.13;;;11.16;91.59
65175;BME280;51761;42.126;24.752;2023-03-22T00:20:49;99260.88;;;11.17;92.08
65175;BME280;51761;42.126;24.752;2023-03-22T00:23:15;99251.78;;;11.29;91.11
65175;BME280;51761;42.126;24.752;2023-03-22T00:25:42;99244.63;;;11.28;91.25
65175;BME280;51761;42.126;24.752;2023-03-22T00:28:08;99225.22;;;11.05;91.60
65175;BME280;51761;42.126;24.752;2023-03-22T00:30:34;99232.03;;;11.20;91.98
65175;BME280;51761;42.126;24.752;2023-03-22T00:32:59;99233.91;;;11.27;91.51
65175;BME280;51761;42.126;24.752;2023-03-22T00:35:25;99239.56;;;11.23;91.56
65175;BME280;51761;42.126;24.752;2023-03-22T00:37:50;99246.19;;;11.29;91.44
65175;BME280;51761;42.126;24.752;2023-03-22T00:40:16;99242.28;;;11.27;90.97
65175;BME280;51761;42.126;24.752;2023-03-22T00:42:42;99243.06;;;11.27;90.72
65175;BME280;51761;42.126;24.752;2023-03-22T00:45:09;99230.47;;;11.19;92.23
65175;BME280;51761;42.126;24.752;2023-03-22T00:47:35;99246.31;;;11.26;92.08
65175;BME280;51761;42.126;24.752;2023-03-22T00:50:01;99226.47;;;11.20;91.56
65175;BME280;51761;42.126;24.752;2023-03-22T00:52:27;99218.25;;;11.13;90.25
65175;BME280;51761;42.126;24.752;2023-03-22T00:54:54;99237.91;;;11.26;90.98
65175;BME280;51761;42.126;24.752;2023-03-22T00:57:20;99231.06;;;11.11;90.95
65175;BME280;51761;42.126;24.752;2023-03-22T00:59:46;99242.34;;;11.07;90.96
65175;BME280;51761;42.126;24.752;2023-03-22T01:02:11;99243.06;;;11.11;90.52
65175;BME280;51761;42.126;24.752;2023-03-22T01:04:41;99237.19;;;11.06;90.74
65175;BME280;51761;42.126;24.752;2023-03-22T01:07:18;99209.84;;;10.82;91.01
65175;BME280;51761;42.126;24.752;2023-03-22T01:09:49;99231.31;;;11.00;90.82
65175;BME280;51761;42.126;24.752;2023-03-22T01:12:16;99214.97;;;10.83;90.26
65175;BME280;51761;42.126;24.752;2023-03-22T01:14:42;99217.88;;;10.80;89.48
65175;BME280;51761;42.126;24.752;2023-03-22T01:17:08;99213.41;;;10.82;89.48
65175;BME280;51761;42.126;24.752;2023-03-22T01:19:35;99229.13;;;10.76;89.07
65175;BME280;51761;42.126;24.752;2023-03-22T01:22:05;99239.13;;;10.74;88.67
65175;BME280;51761;42.126;24.752;2023-03-22T01:24:31;99231.78;;;10.64;89.33
65175;BME280;51761;42.126;24.752;2023-03-22T01:26:57;99234.94;;;10.66;89.17
65175;BME280;51761;42.126;24.752;2023-03-22T01:29:23;99212.13;;;10.51;88.79
65175;BME280;51761;42.126;24.752;2023-03-22T01:31:49;99234.88;;;10.69;88.93
65175;BME280;51761;42.126;24.752;2023-03-22T01:34:16;99225.91;;;10.58;88.89
65175;BME280;51761;42.126;24.752;2023-03-22T01:36:41;99242.44;;;10.69;88.92
65175;BME280;51761;42.126;24.752;2023-03-22T01:39:07;99214.16;;;10.51;89.56
65175;BME280;51761;42.126;24.752;2023-03-22T01:41:32;99239.38;;;10.63;89.76
65175;BME280;51761;42.126;24.752;2023-03-22T01:44:12;99233.53;;;10.58;90.61
65175;BME280;51761;42.126;24.752;2023-03-22T01:46:39;99208.28;;;10.45;90.99
65175;BME280;51761;42.126;24.752;2023-03-22T01:49:09;99208.84;;;10.37;91.43
65175;BME280;51761;42.126;24.752;2023-03-22T01:51:38;99219.34;;;10.49;91.06
65175;BME280;51761;42.126;24.752;2023-03-22T01:54:08;99210.63;;;10.47;91.12
65175;BME280;51761;42.126;24.752;2023-03-22T01:56:38;99237.53;;;10.57;91.51
65175;BME280;51761;42.126;24.752;2023-03-22T01:59:04;99241.75;;;10.65;91.26
65175;BME280;51761;42.126;24.752;2023-03-22T02:01:31;99227.50;;;10.59;91.24
65175;BME280;51761;42.126;24.752;2023-03-22T02:04:02;99234.06;;;10.69;90.75
65175;BME280;51761;42.126;24.752;2023-03-22T02:06:29;99217.78;;;10.48;91.16
65175;BME280;51761;42.126;24.752;2023-03-22T02:08:56;99242.69;;;10.58;90.94
65175;BME280;51761;42.126;24.752;2023-03-22T02:11:37;99221.59;;;10.38;91.51
65175;BME280;51761;42.126;24.752;2023-03-22T02:28:39;99262.19;;;10.23;93.91
65175;BME280;51761;42.126;24.752;2023-03-22T02:39:37;99266.09;;;10.06;95.96
65175;BME280;51761;42.126;24.752;2023-03-22T02:48:16;99259.31;;;9.84;98.42
65175;BME280;51761;42.126;24.752;2023-03-22T02:51:06;99261.53;;;9.73;100.00
65175;BME280;51761;42.126;24.752;2023-03-22T02:53:41;99258.44;;;9.67;100.00
65175;BME280;51761;42.126;24.752;2023-03-22T02:56:28;99261.72;;;9.62;100.00
65175;BME280;51761;42.126;24.752;2023-03-22T02:58:59;99243.19;;;9.52;100.00
65175;BME280;51761;42.126;24.752;2023-03-22T03:01:28;99256.06;;;9.66;100.00
65175;BME280;51761;42.126;24.752;2023-03-22T03:03:57;99248.97;;;9.61;100.00
65175;BME280;51761;42.126;24.752;2023-03-22T03:06:26;99262.03;;;9.68;100.00
65175;BME280;51761;42.126;24.752;2023-03-22T03:08:56;99266.75;;;9.71;100.00
65175;BME280;51761;42.126;24.752;2023-03-22T03:11:23;99267.16;;;9.69;100.00
65175;BME280;51761;42.126;24.752;2023-03-22T03:13:49;99270.41;;;9.87;100.00
65175;BME280;51761;42.126;24.752;2023-03-22T03:16:19;99275.63;;;9.85;100.00
65175;BME280;51761;42.126;24.752;2023-03-22T03:19:30;99277.44;;;9.95;100.00
65175;BME280;51761;42.126;24.752;2023-03-22T03:27:26;99260.16;;;10.04;98.38
65175;BME280;51761;42.126;24.752;2023-03-22T03:33:03;99291.06;;;10.13;98.48
65175;BME280;51761;42.126;24.752;2023-03-22T03:35:57;99281.28;;;10.05;99.24
65175;BME280;51761;42.126;24.752;2023-03-22T03:38:30;99287.38;;;9.96;98.46
65175;BME280;51761;42.126;24.752;2023-03-22T03:41:01;99291.31;;;9.99;98.02
65175;BME280;51761;42.126;24.752;2023-03-22T03:43:27;99269.91;;;9.92;96.95
65175;BME280;51761;42.126;24.752;2023-03-22T03:45:54;99286.41;;;10.06;96.82
65175;BME280;51761;42.126;24.752;2023-03-22T03:48:27;99286.84;;;10.05;96.79
65175;BME280;51761;42.126;24.752;2023-03-22T03:50:55;99287.38;;;9.96;97.77
65175;BME280;51761;42.126;24.752;2023-03-22T03:53:21;99281.03;;;9.96;97.73
65175;BME280;51761;42.126;24.752;2023-03-22T03:55:47;99288.59;;;9.95;98.53
65175;BME280;51761;42.126;24.752;2023-03-22T03:58:12;99292.28;;;9.89;98.62
65175;BME280;51761;42.126;24.752;2023-03-22T04:00:40;99265.38;;;9.79;99.18
65175;BME280;51761;42.126;24.752;2023-03-22T04:03:06;99292.19;;;9.96;98.92
65175;BME280;51761;42.126;24.752;2023-03-22T04:05:31;99286.13;;;10.01;98.32
65175;BME280;51761;42.126;24.752;2023-03-22T04:07:57;99295.28;;;10.01;98.44
65175;BME280;51761;42.126;24.752;2023-03-22T04:10:22;99276.91;;;9.81;98.93
65175;BME280;51761;42.126;24.752;2023-03-22T04:12:48;99303.59;;;10.05;98.62
65175;BME280;51761;42.126;24.752;2023-03-22T04:15:13;99279.63;;;9.84;98.31
65175;BME280;51761;42.126;24.752;2023-03-22T04:17:40;99300.00;;;10.04;98.35
65175;BME280;51761;42.126;24.752;2023-03-22T04:20:07;99309.16;;;10.05;98.42
65175;BME280;51761;42.126;24.752;2023-03-22T04:22:33;99309.94;;;10.05;98.88
65175;BME280;51761;42.126;24.752;2023-03-22T04:25:03;99288.19;;;9.97;98.73
65175;BME280;51761;42.126;24.752;2023-03-22T04:27:29;99293.75;;;9.97;98.62
65175;BME280;51761;42.126;24.752;2023-03-22T04:29:54;99309.53;;;10.07;98.51
65175;BME280;51761;42.126;24.752;2023-03-22T04:32:20;99316.00;;;10.00;99.29
65175;BME280;51761;42.126;24.752;2023-03-22T04:34:49;99317.03;;;9.87;100.00
65175;BME280;51761;42.126;24.752;2023-03-22T04:37:15;99312.16;;;9.91;100.00
65175;BME280;51761;42.126;24.752;2023-03-22T04:39:41;99315.97;;;10.04;100.00
65175;BME280;51761;42.126;24.752;2023-03-22T04:42:07;99321.56;;;10.00;100.00
65175;BME280;51761;42.126;24.752;2023-03-22T04:44:33;99320.38;;;10.01;100.00
65175;BME280;51761;42.126;24.752;2023-03-22T04:46:58;99314.38;;;10.03;100.00
65175;BME280;51761;42.126;24.752;2023-03-22T04:49:24;99324.50;;;10.16;100.00
65175;BME280;51761;42.126;24.752;2023-03-22T04:51:51;99332.38;;;10.21;100.00
65175;BME280;51761;42.126;24.752;2023-03-22T04:54:16;99333.88;;;10.26;100.00
65175;BME280;51761;42.126;24.752;2023-03-22T04:56:42;99333.72;;;10.13;100.00
65175;BME280;51761;42.126;24.752;2023-03-22T04:59:07;99335.31;;;10.14;100.00
65175;BME280;51761;42.126;24.752;2023-03-22T05:01:35;99324.44;;;9.97;100.00
65175;BME280;51761;42.126;24.752;2023-03-22T05:04:02;99328.56;;;10.12;100.00
65175;BME280;51761;42.126;24.752;2023-03-22T05:06:28;99328.50;;;10.15;100.00
65175;BME280;51761;42.126;24.752;2023-03-22T05:08:57;99332.66;;;10.07;100.00
65175;BME280;51761;42.126;24.752;2023-03-22T05:11:23;99337.38;;;10.10;100.00
65175;BME280;51761;42.126;24.752;2023-03-22T05:13:52;99341.66;;;10.15;100.00
65175;BME280;51761;42.126;24.752;2023-03-22T05:16:18;99348.34;;;10.21;100.00
65175;BME280;51761;42.126;24.752;2023-03-22T05:18:43;99341.59;;;10.18;100.00
65175;BME280;51761;42.126;24.752;2023-03-22T05:21:15;99348.13;;;10.31;100.00
65175;BME280;51761;42.126;24.752;2023-03-22T05:23:42;99344.19;;;10.29;100.00
65175;BME280;51761;42.126;24.752;2023-03-22T05:26:08;99344.25;;;10.25;100.00
65175;BME280;51761;42.126;24.752;2023-03-22T05:28:35;99357.66;;;10.34;100.00
65175;BME280;51761;42.126;24.752;2023-03-22T05:31:02;99362.81;;;10.35;100.00
65175;BME280;51761;42.126;24.752;2023-03-22T05:33:27;99377.78;;;10.45;100.00
65175;BME280;51761;42.126;24.752;2023-03-22T05:35:54;99378.94;;;10.47;100.00
65175;BME280;51761;42.126;24.752;2023-03-22T05:38:20;99375.84;;;10.42;100.00
65175;BME280;51761;42.126;24.752;2023-03-22T05:40:47;99383.75;;;10.66;100.00
65175;BME280;51761;42.126;24.752;2023-03-22T05:43:12;99386.75;;;10.56;100.00
65175;BME280;51761;42.126;24.752;2023-03-22T05:45:38;99389.03;;;10.61;100.00
65175;BME280;51761;42.126;24.752;2023-03-22T05:48:04;99379.59;;;10.74;100.00
65175;BME280;51761;42.126;24.752;2023-03-22T05:50:29;99378.66;;;10.81;99.47
65175;BME280;51761;42.126;24.752;2023-03-22T05:52:55;99376.50;;;10.69;98.87
65175;BME280;51761;42.126;24.752;2023-03-22T05:55:21;99373.78;;;10.65;98.98
65175;BME280;51761;42.126;24.752;2023-03-22T05:57:47;99392.91;;;10.86;99.54
65175;BME280;51761;42.126;24.752;2023-03-22T06:00:16;99411.19;;;10.91;99.82
65175;BME280;51761;42.126;24.752;2023-03-22T06:02:45;99409.97;;;10.92;100.00
65175;BME280;51761;42.126;24.752;2023-03-22T06:05:11;99395.19;;;10.72;100.00
65175;BME280;51761;42.126;24.752;2023-03-22T06:07:38;99414.75;;;10.91;100.00
65175;BME280;51761;42.126;24.752;2023-03-22T06:10:05;99400.50;;;10.86;100.00
65175;BME280;51761;42.126;24.752;2023-03-22T06:12:32;99419.91;;;10.93;100.00
65175;BME280;51761;42.126;24.752;2023-03-22T06:14:58;99388.84;;;10.71;100.00
65175;BME280;51761;42.126;24.752;2023-03-22T06:17:23;99419.91;;;10.93;100.00
65175;BME280;51761;42.126;24.752;2023-03-22T06:19:50;99422.13;;;11.01;99.85
65175;BME280;51761;42.126;24.752;2023-03-22T06:22:16;99422.75;;;10.89;100.00
65175;BME280;51761;42.126;24.752;2023-03-22T06:24:42;99411.59;;;10.89;99.60
65175;BME280;51761;42.126;24.752;2023-03-22T06:27:08;99430.81;;;11.06;99.28
65175;BME280;51761;42.126;24.752;2023-03-22T06:29:33;99434.03;;;11.05;99.20
65175;BME280;51761;42.126;24.752;2023-03-22T06:31:59;99421.94;;;10.92;98.78
65175;BME280;51761;42.126;24.752;2023-03-22T06:34:25;99449.44;;;10.94;98.79
65175;BME280;51761;42.126;24.752;2023-03-22T06:36:51;99427.47;;;10.73;99.31
65175;BME280;51761;42.126;24.752;2023-03-22T06:39:20;99455.88;;;10.91;99.71
65175;BME280;51761;42.126;24.752;2023-03-22T06:41:47;99457.50;;;10.88;99.98
65175;BME280;51761;42.126;24.752;2023-03-22T06:44:13;99468.41;;;11.02;99.82
65175;BME280;51761;42.126;24.752;2023-03-22T06:46:38;99455.66;;;11.01;99.80
65175;BME280;51761;42.126;24.752;2023-03-22T06:49:04;99463.13;;;11.07;98.95
65175;BME280;51761;42.126;24.752;2023-03-22T06:51:30;99460.97;;;10.96;100.00
65175;BME280;51761;42.126;24.752;2023-03-22T06:53:56;99460.88;;;10.80;100.00
65175;BME280;51761;42.126;24.752;2023-03-22T06:56:22;99445.41;;;10.75;100.00
65175;BME280;51761;42.126;24.752;2023-03-22T06:58:48;99467.41;;;10.93;100.00
65175;BME280;51761;42.126;24.752;2023-03-22T07:01:16;99441.25;;;10.83;100.00
65175;BME280;51761;42.126;24.752;2023-03-22T07:03:42;99464.84;;;11.76;100.00
65175;BME280;51761;42.126;24.752;2023-03-22T07:06:07;99460.16;;;12.05;100.00
65175;BME280;51761;42.126;24.752;2023-03-22T07:08:34;99444.13;;;12.37;100.00
65175;BME280;51761;42.126;24.752;2023-03-22T07:11:00;99450.00;;;12.87;100.00
65175;BME280;51761;42.126;24.752;2023-03-22T07:13:25;99463.66;;;12.41;100.00
65175;BME280;51761;42.126;24.752;2023-03-22T07:15:58;99461.53;;;11.97;100.00
65175;BME280;51761;42.126;24.752;2023-03-22T07:18:24;99428.22;;;11.15;100.00
65175;BME280;51761;42.126;24.752;2023-03-22T07:20:50;99436.75;;;11.08;100.00
65175;BME280;51761;42.126;24.752;2023-03-22T07:23:16;99423.72;;;10.83;100.00
65175;BME280;51761;42.126;24.752;2023-03-22T07:25:42;99431.53;;;10.49;100.00
65175;BME280;51761;42.126;24.752;2023-03-22T07:28:08;99415.22;;;10.47;100.00
65175;BME280;51761;42.126;24.752;2023-03-22T07:30:36;99405.06;;;10.37;100.00
65175;BME280;51761;42.126;24.752;2023-03-22T07:33:02;99426.75;;;10.49;100.00
65175;BME280;51761;42.126;24.752;2023-03-22T07:35:29;99433.13;;;10.50;100.00
65175;BME280;51761;42.126;24.752;2023-03-22T07:37:54;99439.72;;;10.59;100.00
65175;BME280;51761;42.126;24.752;2023-03-22T07:40:20;99448.25;;;10.72;100.00
65175;BME280;51761;42.126;24.752;2023-03-22T07:42:49;99444.38;;;10.66;100.00
65175;BME280;51761;42.126;24.752;2023-03-22T07:45:16;99468.13;;;10.97;100.00
65175;BME280;51761;42.126;24.752;2023-03-22T07:47:42;99495.81;;;11.10;100.00
65175;BME280;51761;42.126;24.752;2023-03-22T07:50:08;99463.91;;;10.89;100.00
65175;BME280;51761;42.126;24.752;2023-03-22T07:52:36;99465.31;;;10.97;100.00
65175;BME280;51761;42.126;24.752;2023-03-22T07:55:03;99473.16;;;11.05;100.00
65175;BME280;51761;42.126;24.752;2023-03-22T07:57:28;99467.97;;;11.03;100.00
65175;BME280;51761;42.126;24.752;2023-03-22T07:59:54;99490.72;;;11.25;100.00
65175;BME280;51761;42.126;24.752;2023-03-22T08:02:20;99484.16;;;11.31;100.00
65175;BME280;51761;42.126;24.752;2023-03-22T08:04:46;99480.16;;;11.32;100.00
65175;BME280;51761;42.126;24.752;2023-03-22T08:07:13;99488.19;;;11.50;100.00
65175;BME280;51761;42.126;24.752;2023-03-22T08:09:39;99484.47;;;11.56;100.00
65175;BME280;51761;42.126;24.752;2023-03-22T08:12:05;99489.00;;;11.86;100.00
65175;BME280;51761;42.126;24.752;2023-03-22T08:14:31;99482.38;;;11.96;99.44
65175;BME280;51761;42.126;24.752;2023-03-22T08:16:57;99502.97;;;12.21;99.05
65175;BME280;51761;42.126;24.752;2023-03-22T08:19:22;99504.88;;;12.40;98.07
65175;BME280;51761;42.126;24.752;2023-03-22T08:21:48;99508.91;;;12.55;93.32
65175;BME280;51761;42.126;24.752;2023-03-22T08:24:13;99507.56;;;12.59;94.93
65175;BME280;51761;42.126;24.752;2023-03-22T08:26:39;99512.50;;;12.40;95.45
65175;BME280;51761;42.126;24.752;2023-03-22T08:29:05;99493.69;;;12.24;95.73
65175;BME280;51761;42.126;24.752;2023-03-22T08:31:30;99518.00;;;12.27;95.98
65175;BME280;51761;42.126;24.752;2023-03-22T08:33:56;99520.44;;;12.09;96.83
65175;BME280;51761;42.126;24.752;2023-03-22T08:36:22;99520.78;;;11.95;97.55
65175;BME280;51761;42.126;24.752;2023-03-22T08:38:48;99525.28;;;11.89;96.49
65175;BME280;51761;42.126;24.752;2023-03-22T08:41:14;99524.38;;;11.76;97.67
65175;BME280;51761;42.126;24.752;2023-03-22T08:43:43;99526.66;;;11.65;99.35
65175;BME280;51761;42.126;24.752;2023-03-22T08:46:08;99520.81;;;11.56;98.25
65175;BME280;51761;42.126;24.752;2023-03-22T08:48:34;99519.44;;;11.45;99.21
65175;BME280;51761;42.126;24.752;2023-03-22T08:51:03;99491.63;;;11.38;98.91
65175;BME280;51761;42.126;24.752;2023-03-22T08:53:29;99512.00;;;11.38;99.90
65175;BME280;51761;42.126;24.752;2023-03-22T08:55:55;99510.06;;;11.35;98.87
65175;BME280;51761;42.126;24.752;2023-03-22T08:58:22;99520.31;;;11.61;98.62
65175;BME280;51761;42.126;24.752;2023-03-22T09:00:48;99527.47;;;11.62;98.67
65175;BME280;51761;42.126;24.752;2023-03-22T09:03:13;99501.88;;;11.64;97.57
65175;BME280;51761;42.126;24.752;2023-03-22T09:05:40;99512.84;;;11.74;97.97
65175;BME280;51761;42.126;24.752;2023-03-22T09:08:06;99497.91;;;11.81;98.65
65175;BME280;51761;42.126;24.752;2023-03-22T09:10:31;99511.41;;;12.02;98.46
65175;BME280;51761;42.126;24.752;2023-03-22T09:12:57;99492.84;;;11.92;96.68
65175;BME280;51761;42.126;24.752;2023-03-22T09:15:23;99522.69;;;12.14;96.96
65175;BME280;51761;42.126;24.752;2023-03-22T09:17:48;99511.28;;;11.89;98.00
65175;BME280;51761;42.126;24.752;2023-03-22T09:20:14;99523.81;;;12.01;96.67
65175;BME280;51761;42.126;24.752;2023-03-22T09:22:40;99523.56;;;11.95;96.88
65175;BME280;51761;42.126;24.752;2023-03-22T09:25:06;99528.81;;;12.09;96.22
65175;BME280;51761;42.126;24.752;2023-03-22T09:27:32;99527.25;;;12.08;96.19
65175;BME280;51761;42.126;24.752;2023-03-22T09:29:58;99529.69;;;12.06;95.93
65175;BME280;51761;42.126;24.752;2023-03-22T09:32:24;99507.47;;;11.99;93.75
65175;BME280;51761;42.126;24.752;2023-03-22T09:34:50;99506.78;;;11.95;94.73
65175;BME280;51761;42.126;24.752;2023-03-22T09:37:16;99523.25;;;12.25;95.25
65175;BME280;51761;42.126;24.752;2023-03-22T09:39:43;99511.25;;;12.25;96.07
65175;BME280;51761;42.126;24.752;2023-03-22T09:42:31;99519.84;;;12.34;94.35
65175;BME280;51761;42.126;24.752;2023-03-22T09:45:00;99492.28;;;12.48;94.80
65175;BME280;51761;42.126;24.752;2023-03-22T09:47:34;99510.22;;;12.66;92.36
65175;BME280;51761;42.126;24.752;2023-03-22T09:50:06;99503.47;;;12.64;91.55
65175;BME280;51761;42.126;24.752;2023-03-22T09:52:33;99472.31;;;12.62;91.24
65175;BME280;51761;42.126;24.752;2023-03-22T09:54:58;99488.16;;;12.68;91.08
65175;BME280;51761;42.126;24.752;2023-03-22T10:00:11;99503.16;;;12.90;89.81
65175;BME280;51761;42.126;24.752;2023-03-22T10:05:38;99505.75;;;13.42;87.27
65175;BME280;51761;42.126;24.752;2023-03-22T10:10:57;99515.91;;;13.64;87.03
65175;BME280;51761;42.126;24.752;2023-03-22T10:13:47;99511.53;;;13.76;87.68
65175;BME280;51761;42.126;24.752;2023-03-22T10:16:26;99512.13;;;13.96;86.19
65175;BME280;51761;42.126;24.752;2023-03-22T10:18:57;99513.50;;;14.16;86.95
65175;BME280;51761;42.126;24.752;2023-03-22T10:21:26;99512.69;;;14.40;82.74
65175;BME280;51761;42.126;24.752;2023-03-22T10:24:03;99507.66;;;14.48;83.28
65175;BME280;51761;42.126;24.752;2023-03-22T10:26:44;99506.78;;;14.72;82.39
65175;BME280;51761;42.126;24.752;2023-03-22T10:29:22;99506.63;;;15.01;81.06
65175;BME280;51761;42.126;24.752;2023-03-22T10:31:50;99479.78;;;14.87;79.76
65175;BME280;51761;42.126;24.752;2023-03-22T10:34:25;99505.81;;;15.00;78.89
65175;BME280;51761;42.126;24.752;2023-03-22T10:37:00;99498.50;;;15.03;79.03
65175;BME280;51761;42.126;24.752;2023-03-22T10:41:59;99482.56;;;15.21;74.68
65175;BME280;51761;42.126;24.752;2023-03-22T10:44:28;99483.78;;;15.33;74.38
65175;BME280;51761;42.126;24.752;2023-03-22T10:46:58;99488.41;;;15.48;74.89
65175;BME280;51761;42.126;24.752;2023-03-22T10:49:34;99487.75;;;15.66;75.95
65175;BME280;51761;42.126;24.752;2023-03-22T10:52:08;99486.09;;;15.77;72.69
65175;BME280;51761;42.126;24.752;2023-03-22T10:54:37;99477.13;;;15.70;73.22
65175;BME280;51761;42.126;24.752;2023-03-22T10:57:03;99478.69;;;15.71;74.53
65175;BME280;51761;42.126;24.752;2023-03-22T10:59:43;99474.00;;;15.68;74.04
65175;BME280;51761;42.126;24.752;2023-03-22T11:02:29;99481.38;;;15.74;71.59
65175;BME280;51761;42.126;24.752;2023-03-22T11:04:58;99457.56;;;15.66;69.90
65175;BME280;51761;42.126;24.752;2023-03-22T11:12:40;99469.59;;;15.88;67.37
65175;BME280;51761;42.126;24.752;2023-03-22T11:17:48;99473.81;;;16.32;68.29
65175;BME280;51761;42.126;24.752;2023-03-22T11:20:15;99468.53;;;16.34;67.66
65175;BME280;51761;42.126;24.752;2023-03-22T11:22:44;99456.88;;;16.23;66.38
65175;BME280;51761;42.126;24.752;2023-03-22T11:25:33;99472.97;;;16.62;65.85
65175;BME280;51761;42.126;24.752;2023-03-22T11:30:29;99456.09;;;16.80;65.07
65175;BME280;51761;42.126;24.752;2023-03-22T11:35:35;99448.88;;;16.79;63.29
65175;BME280;51761;42.126;24.752;2023-03-22T11:38:00;99430.53;;;16.74;63.48
65175;BME280;51761;42.126;24.752;2023-03-22T11:40:29;99450.75;;;16.73;62.66
65175;BME280;51761;42.126;24.752;2023-03-22T11:43:57;99460.78;;;17.19;62.70
65175;BME280;51761;42.126;24.752;2023-03-22T11:46:03;99441.06;;;17.10;64.17
65175;BME280;51761;42.126;24.752;2023-03-22T11:48:31;99426.78;;;17.22;65.54
65175;BME280;51761;42.126;24.752;2023-03-22T11:51:10;99450.28;;;17.37;64.84
65175;BME280;51761;42.126;24.752;2023-03-22T11:53:39;99455.63;;;17.44;63.15
65175;BME280;51761;42.126;24.752;2023-03-22T11:56:10;99448.81;;;17.68;62.64
65175;BME280;51761;42.126;24.752;2023-03-22T12:01:02;99448.97;;;17.65;59.15
65175;BME280;51761;42.126;24.752;2023-03-22T12:03:32;99433.53;;;17.34;60.67
65175;BME280;51761;42.126;24.752;2023-03-22T12:06:05;99452.97;;;17.32;61.32
65175;BME280;51761;42.126;24.752;2023-03-22T12:11:35;99443.25;;;17.06;57.80
65175;BME280;51761;42.126;24.752;2023-03-22T12:14:07;99434.63;;;17.00;58.68
65175;BME280;51761;42.126;24.752;2023-03-22T12:16:48;99449.03;;;17.11;59.90
65175;BME280;51761;42.126;24.752;2023-03-22T12:21:53;99432.56;;;17.01;60.53
65175;BME280;51761;42.126;24.752;2023-03-22T12:24:29;99444.63;;;17.28;59.95
65175;BME280;51761;42.126;24.752;2023-03-22T12:27:25;99443.22;;;17.33;57.20
65175;BME280;51761;42.126;24.752;2023-03-22T12:29:58;99428.81;;;16.86;57.02
65175;BME280;51761;42.126;24.752;2023-03-22T12:32:32;99448.59;;;17.04;56.98
65175;BME280;51761;42.126;24.752;2023-03-22T12:34:58;99445.28;;;16.69;57.60
65175;BME280;51761;42.126;24.752;2023-03-22T12:37:27;99442.59;;;16.57;58.58
65175;BME280;51761;42.126;24.752;2023-03-22T12:40:02;99451.81;;;16.57;59.06
65175;BME280;51761;42.126;24.752;2023-03-22T12:42:35;99437.53;;;16.43;60.43
65175;BME280;51761;42.126;24.752;2023-03-22T12:45:05;99454.94;;;16.50;61.68
65175;BME280;51761;42.126;24.752;2023-03-22T12:50:31;99450.28;;;16.65;63.20
65175;BME280;51761;42.126;24.752;2023-03-22T12:52:59;99424.88;;;16.56;57.30
65175;BME280;51761;42.126;24.752;2023-03-22T12:55:37;99452.13;;;16.50;57.16
65175;BME280;51761;42.126;24.752;2023-03-22T12:58:08;99453.56;;;16.55;57.83
65175;BME280;51761;42.126;24.752;2023-03-22T13:00:39;99451.63;;;16.43;56.85
65175;BME280;51761;42.126;24.752;2023-03-22T13:05:47;99433.50;;;16.71;55.35
65175;BME280;51761;42.126;24.752;2023-03-22T13:08:18;99453.13;;;17.01;52.56
65175;BME280;51761;42.126;24.752;2023-03-22T13:11:03;99450.44;;;17.52;55.67
65175;BME280;51761;42.126;24.752;2023-03-22T13:21:20;99446.53;;;17.99;50.55
65175;BME280;51761;42.126;24.752;2023-03-22T13:29:17;99442.22;;;17.71;50.04
65175;BME280;51761;42.126;24.752;2023-03-22T13:31:46;99417.03;;;17.41;51.41
65175;BME280;51761;42.126;24.752;2023-03-22T13:34:18;99441.66;;;17.32;51.78
65175;BME280;51761;42.126;24.752;2023-03-22T13:36:50;99439.78;;;17.20;52.05
65175;BME280;51761;42.126;24.752;2023-03-22T13:39:17;99448.72;;;17.00;52.44
65175;BME280;51761;42.126;24.752;2023-03-22T13:41:46;99444.94;;;16.76;54.48
65175;BME280;51761;42.126;24.752;2023-03-22T13:44:34;99450.91;;;16.60;54.80
65175;BME280;51761;42.126;24.752;2023-03-22T13:47:01;99427.88;;;16.62;55.92
65175;BME280;51761;42.126;24.752;2023-03-22T13:49:44;99447.28;;;16.69;53.91
65175;BME280;51761;42.126;24.752;2023-03-22T13:52:27;99436.81;;;16.60;53.60
65175;BME280;51761;42.126;24.752;2023-03-22T13:54:55;99440.06;;;16.50;53.10
65175;BME280;51761;42.126;24.752;2023-03-22T14:03:00;99423.84;;;15.84;55.45
65175;BME280;51761;42.126;24.752;2023-03-22T14:05:31;99442.06;;;15.92;55.49
65175;BME280;51761;42.126;24.752;2023-03-22T14:08:00;99444.25;;;15.97;55.66
65175;BME280;51761;42.126;24.752;2023-03-22T14:15:47;99454.84;;;15.54;61.70
65175;BME280;51761;42.126;24.752;2023-03-22T14:18:26;99452.75;;;15.45;62.74
65175;BME280;51761;42.126;24.752;2023-03-22T14:20:56;99445.88;;;15.46;63.24
65175;BME280;51761;42.126;24.752;2023-03-22T14:23:25;99422.88;;;15.26;64.14
65175;BME280;51761;42.126;24.752;2023-03-22T14:25:57;99451.00;;;15.26;64.40
65175;BME280;51761;42.126;24.752;2023-03-22T14:28:34;99421.78;;;15.02;64.83
65175;BME280;51761;42.126;24.752;2023-03-22T14:31:01;99449.97;;;15.11;65.45
65175;BME280;51761;42.126;24.752;2023-03-22T14:33:29;99450.38;;;15.01;65.66
65175;BME280;51761;42.126;24.752;2023-03-22T14:36:01;99451.16;;;14.67;67.58